sensor_id;sensor_type;location;lat;lon;timestamp;P1;durP1;ratioP1;P2;durP2;ratioP2
29984;SDS011;17387;42.690;23.328;2023-04-06T00:01:37;15.68;;;10.98;;
29984;SDS011;17387;42.690;23.328;2023-04-06T00:04:03;17.35;;;11.43;;
29984;SDS011;17387;42.690;23.328;2023-04-06T00:06:28;17.55;;;10.40;;
29984;SDS011;17387;42.690;23.328;2023-04-06T00:08:53;17.17;;;11.23;;
29984;SDS011;17387;42.690;23.328;2023-04-06T00:11:19;16.42;;;10.90;;
29984;SDS011;17387;42.690;23.328;2023-04-06T00:13:44;17.95;;;11.20;;
29984;SDS011;17387;42.690;23.328;2023-04-06T00:16:10;19.98;;;12.50;;
29984;SDS011;17387;42.690;23.328;2023-04-06T00:18:35;15.43;;;10.43;;
29984;SDS011;17387;42.690;23.328;2023-04-06T00:21:00;18.42;;;12.73;;
29984;SDS011;17387;42.690;23.328;2023-04-06T00:23:26;17.27;;;11.93;;
29984;SDS011;17387;42.690;23.328;2023-04-06T00:25:51;18.95;;;12.85;;
29984;SDS011;17387;42.690;23.328;2023-04-06T00:28:16;21.40;;;13.68;;
29984;SDS011;17387;42.690;23.328;2023-04-06T00:30:42;19.17;;;12.85;;
29984;SDS011;17387;42.690;23.328;2023-04-06T00:33:07;19.73;;;12.00;;
29984;SDS011;17387;42.690;23.328;2023-04-06T00:35:32;19.15;;;12.68;;
29984;SDS011;17387;42.690;23.328;2023-04-06T00:37:58;19.10;;;11.35;;
29984;SDS011;17387;42.690;23.328;2023-04-06T00:40:23;19.08;;;12.63;;
29984;SDS011;17387;42.690;23.328;2023-04-06T00:42:48;19.95;;;12.27;;
29984;SDS011;17387;42.690;23.328;2023-04-06T00:45:14;20.27;;;11.95;;
29984;SDS011;17387;42.690;23.328;2023-04-06T00:47:39;18.10;;;12.45;;
29984;SDS011;17387;42.690;23.328;2023-04-06T00:50:05;18.85;;;12.38;;
29984;SDS011;17387;42.690;23.328;2023-04-06T00:52:30;16.75;;;11.73;;
29984;SDS011;17387;42.690;23.328;2023-04-06T00:54:55;18.25;;;11.75;;
29984;SDS011;17387;42.690;23.328;2023-04-06T00:57:21;19.40;;;12.60;;
29984;SDS011;17387;42.690;23.328;2023-04-06T00:59:46;18.85;;;12.30;;
29984;SDS011;17387;42.690;23.328;2023-04-06T01:02:11;19.65;;;12.10;;
29984;SDS011;17387;42.690;23.328;2023-04-06T01:04:37;16.65;;;10.85;;
29984;SDS011;17387;42.690;23.328;2023-04-06T01:07:02;16.67;;;10.35;;
29984;SDS011;17387;42.690;23.328;2023-04-06T01:09:28;14.65;;;9.98;;
29984;SDS011;17387;42.690;23.328;2023-04-06T01:11:54;16.60;;;10.95;;
29984;SDS011;17387;42.690;23.328;2023-04-06T01:14:21;17.23;;;11.05;;
29984;SDS011;17387;42.690;23.328;2023-04-06T01:16:46;14.35;;;10.02;;
29984;SDS011;17387;42.690;23.328;2023-04-06T01:19:11;16.73;;;11.02;;
29984;SDS011;17387;42.690;23.328;2023-04-06T01:21:37;14.13;;;10.35;;
29984;SDS011;17387;42.690;23.328;2023-04-06T01:24:03;15.02;;;10.48;;
29984;SDS011;17387;42.690;23.328;2023-04-06T01:26:29;16.52;;;9.68;;
29984;SDS011;17387;42.690;23.328;2023-04-06T01:28:54;15.32;;;9.77;;
29984;SDS011;17387;42.690;23.328;2023-04-06T01:31:20;15.35;;;10.13;;
29984;SDS011;17387;42.690;23.328;2023-04-06T01:33:45;17.65;;;10.93;;
29984;SDS011;17387;42.690;23.328;2023-04-06T01:36:10;15.98;;;10.38;;
29984;SDS011;17387;42.690;23.328;2023-04-06T01:38:36;20.48;;;11.20;;
29984;SDS011;17387;42.690;23.328;2023-04-06T01:41:01;16.30;;;11.10;;
29984;SDS011;17387;42.690;23.328;2023-04-06T01:43:26;16.27;;;9.63;;
29984;SDS011;17387;42.690;23.328;2023-04-06T01:45:52;16.63;;;10.68;;
29984;SDS011;17387;42.690;23.328;2023-04-06T01:48:17;15.63;;;9.93;;
29984;SDS011;17387;42.690;23.328;2023-04-06T01:50:42;17.67;;;11.13;;
29984;SDS011;17387;42.690;23.328;2023-04-06T01:53:07;16.13;;;10.15;;
29984;SDS011;17387;42.690;23.328;2023-04-06T01:55:33;17.33;;;11.13;;
29984;SDS011;17387;42.690;23.328;2023-04-06T01:57:58;18.23;;;10.43;;
29984;SDS011;17387;42.690;23.328;2023-04-06T02:00:23;19.13;;;12.40;;
29984;SDS011;17387;42.690;23.328;2023-04-06T02:02:48;19.58;;;12.55;;
29984;SDS011;17387;42.690;23.328;2023-04-06T02:05:14;20.58;;;12.38;;
29984;SDS011;17387;42.690;23.328;2023-04-06T02:07:39;18.98;;;13.23;;
29984;SDS011;17387;42.690;23.328;2023-04-06T02:10:10;21.20;;;13.52;;
29984;SDS011;17387;42.690;23.328;2023-04-06T02:12:35;18.27;;;11.95;;
29984;SDS011;17387;42.690;23.328;2023-04-06T02:15:01;19.75;;;12.80;;
29984;SDS011;17387;42.690;23.328;2023-04-06T02:17:26;19.58;;;11.80;;
29984;SDS011;17387;42.690;23.328;2023-04-06T02:19:51;16.13;;;10.27;;
29984;SDS011;17387;42.690;23.328;2023-04-06T02:22:16;17.25;;;11.32;;
29984;SDS011;17387;42.690;23.328;2023-04-06T02:24:42;19.70;;;12.25;;
29984;SDS011;17387;42.690;23.328;2023-04-06T02:27:07;17.85;;;11.88;;
29984;SDS011;17387;42.690;23.328;2023-04-06T02:29:32;20.65;;;12.73;;
29984;SDS011;17387;42.690;23.328;2023-04-06T02:31:57;22.67;;;13.73;;
29984;SDS011;17387;42.690;23.328;2023-04-06T02:34:23;19.15;;;12.07;;
29984;SDS011;17387;42.690;23.328;2023-04-06T02:36:48;18.13;;;11.68;;
29984;SDS011;17387;42.690;23.328;2023-04-06T02:39:13;19.55;;;11.98;;
29984;SDS011;17387;42.690;23.328;2023-04-06T02:41:39;19.50;;;12.70;;
29984;SDS011;17387;42.690;23.328;2023-04-06T02:44:06;21.20;;;12.68;;
29984;SDS011;17387;42.690;23.328;2023-04-06T02:46:32;21.15;;;12.57;;
29984;SDS011;17387;42.690;23.328;2023-04-06T02:48:57;23.00;;;12.57;;
29984;SDS011;17387;42.690;23.328;2023-04-06T02:51:25;18.88;;;12.40;;
29984;SDS011;17387;42.690;23.328;2023-04-06T02:53:50;19.40;;;12.23;;
29984;SDS011;17387;42.690;23.328;2023-04-06T02:56:16;18.30;;;11.15;;
29984;SDS011;17387;42.690;23.328;2023-04-06T02:58:41;18.67;;;12.20;;
29984;SDS011;17387;42.690;23.328;2023-04-06T03:01:06;21.73;;;12.40;;
29984;SDS011;17387;42.690;23.328;2023-04-06T03:03:31;19.60;;;12.77;;
29984;SDS011;17387;42.690;23.328;2023-04-06T03:05:57;20.60;;;13.40;;
29984;SDS011;17387;42.690;23.328;2023-04-06T03:08:23;19.90;;;12.60;;
29984;SDS011;17387;42.690;23.328;2023-04-06T03:10:49;20.10;;;13.10;;
29984;SDS011;17387;42.690;23.328;2023-04-06T03:13:14;17.35;;;11.07;;
29984;SDS011;17387;42.690;23.328;2023-04-06T03:15:39;15.82;;;9.70;;
29984;SDS011;17387;42.690;23.328;2023-04-06T03:18:05;14.43;;;8.95;;
29984;SDS011;17387;42.690;23.328;2023-04-06T03:20:30;14.77;;;9.70;;
29984;SDS011;17387;42.690;23.328;2023-04-06T03:22:55;14.48;;;9.23;;
29984;SDS011;17387;42.690;23.328;2023-04-06T03:25:20;15.10;;;9.48;;
29984;SDS011;17387;42.690;23.328;2023-04-06T03:27:46;16.30;;;9.48;;
29984;SDS011;17387;42.690;23.328;2023-04-06T03:30:11;14.75;;;9.13;;
29984;SDS011;17387;42.690;23.328;2023-04-06T03:32:36;13.43;;;9.00;;
29984;SDS011;17387;42.690;23.328;2023-04-06T03:35:02;13.02;;;9.10;;
29984;SDS011;17387;42.690;23.328;2023-04-06T03:37:27;15.63;;;9.80;;
29984;SDS011;17387;42.690;23.328;2023-04-06T03:39:55;13.48;;;8.88;;
29984;SDS011;17387;42.690;23.328;2023-04-06T03:42:20;17.80;;;9.52;;
29984;SDS011;17387;42.690;23.328;2023-04-06T03:44:45;13.32;;;9.23;;
29984;SDS011;17387;42.690;23.328;2023-04-06T03:47:11;15.57;;;9.13;;
29984;SDS011;17387;42.690;23.328;2023-04-06T03:49:36;15.07;;;9.85;;
29984;SDS011;17387;42.690;23.328;2023-04-06T03:52:01;13.52;;;8.65;;
29984;SDS011;17387;42.690;23.328;2023-04-06T03:54:27;14.35;;;8.98;;
29984;SDS011;17387;42.690;23.328;2023-04-06T03:56:52;13.63;;;8.98;;
29984;SDS011;17387;42.690;23.328;2023-04-06T03:59:17;15.48;;;9.45;;
29984;SDS011;17387;42.690;23.328;2023-04-06T04:01:42;18.42;;;10.52;;
29984;SDS011;17387;42.690;23.328;2023-04-06T04:04:08;18.70;;;11.93;;
29984;SDS011;17387;42.690;23.328;2023-04-06T04:06:33;17.52;;;11.13;;
29984;SDS011;17387;42.690;23.328;2023-04-06T04:08:58;20.27;;;12.73;;
29984;SDS011;17387;42.690;23.328;2023-04-06T04:11:23;14.65;;;9.40;;
29984;SDS011;17387;42.690;23.328;2023-04-06T04:13:51;14.43;;;9.68;;
29984;SDS011;17387;42.690;23.328;2023-04-06T04:16:17;15.98;;;10.10;;
29984;SDS011;17387;42.690;23.328;2023-04-06T04:18:42;18.50;;;10.90;;
29984;SDS011;17387;42.690;23.328;2023-04-06T04:21:08;16.83;;;10.38;;
29984;SDS011;17387;42.690;23.328;2023-04-06T04:23:33;19.08;;;11.57;;
29984;SDS011;17387;42.690;23.328;2023-04-06T04:25:59;21.13;;;12.27;;
29984;SDS011;17387;42.690;23.328;2023-04-06T04:28:24;23.30;;;10.65;;
29984;SDS011;17387;42.690;23.328;2023-04-06T04:30:49;21.08;;;13.18;;
29984;SDS011;17387;42.690;23.328;2023-04-06T04:33:15;19.15;;;11.85;;
29984;SDS011;17387;42.690;23.328;2023-04-06T04:35:40;20.60;;;13.23;;
29984;SDS011;17387;42.690;23.328;2023-04-06T04:38:06;18.38;;;11.68;;
29984;SDS011;17387;42.690;23.328;2023-04-06T04:40:31;20.38;;;11.95;;
29984;SDS011;17387;42.690;23.328;2023-04-06T04:42:56;16.40;;;10.75;;
29984;SDS011;17387;42.690;23.328;2023-04-06T04:45:21;20.65;;;11.98;;
29984;SDS011;17387;42.690;23.328;2023-04-06T04:47:47;19.60;;;11.18;;
29984;SDS011;17387;42.690;23.328;2023-04-06T04:50:12;20.98;;;11.32;;
29984;SDS011;17387;42.690;23.328;2023-04-06T04:52:37;18.42;;;11.60;;
29984;SDS011;17387;42.690;23.328;2023-04-06T04:55:03;18.95;;;12.02;;
29984;SDS011;17387;42.690;23.328;2023-04-06T04:57:28;18.85;;;11.10;;
29984;SDS011;17387;42.690;23.328;2023-04-06T04:59:53;18.05;;;10.45;;
29984;SDS011;17387;42.690;23.328;2023-04-06T05:02:19;17.70;;;9.88;;
29984;SDS011;17387;42.690;23.328;2023-04-06T05:04:44;18.15;;;11.23;;
29984;SDS011;17387;42.690;23.328;2023-04-06T05:07:09;16.55;;;9.90;;
29984;SDS011;17387;42.690;23.328;2023-04-06T05:09:35;16.20;;;10.55;;
29984;SDS011;17387;42.690;23.328;2023-04-06T05:12:00;19.50;;;11.82;;
29984;SDS011;17387;42.690;23.328;2023-04-06T05:14:26;19.92;;;12.40;;
29984;SDS011;17387;42.690;23.328;2023-04-06T05:16:51;23.38;;;13.57;;
29984;SDS011;17387;42.690;23.328;2023-04-06T05:19:17;20.85;;;12.07;;
29984;SDS011;17387;42.690;23.328;2023-04-06T05:21:42;21.95;;;12.68;;
29984;SDS011;17387;42.690;23.328;2023-04-06T05:24:07;21.70;;;13.13;;
29984;SDS011;17387;42.690;23.328;2023-04-06T05:26:33;21.85;;;13.02;;
29984;SDS011;17387;42.690;23.328;2023-04-06T05:28:58;20.70;;;11.98;;
29984;SDS011;17387;42.690;23.328;2023-04-06T05:31:24;21.45;;;13.52;;
29984;SDS011;17387;42.690;23.328;2023-04-06T05:33:50;22.23;;;13.98;;
29984;SDS011;17387;42.690;23.328;2023-04-06T05:36:15;24.48;;;12.70;;
29984;SDS011;17387;42.690;23.328;2023-04-06T05:38:41;20.85;;;12.57;;
29984;SDS011;17387;42.690;23.328;2023-04-06T05:41:06;21.20;;;13.00;;
29984;SDS011;17387;42.690;23.328;2023-04-06T05:43:31;22.38;;;14.38;;
29984;SDS011;17387;42.690;23.328;2023-04-06T05:45:57;24.40;;;14.88;;
29984;SDS011;17387;42.690;23.328;2023-04-06T05:48:22;21.88;;;12.63;;
29984;SDS011;17387;42.690;23.328;2023-04-06T05:50:48;22.67;;;13.55;;
29984;SDS011;17387;42.690;23.328;2023-04-06T05:53:14;25.45;;;14.23;;
29984;SDS011;17387;42.690;23.328;2023-04-06T05:55:40;23.20;;;13.27;;
29984;SDS011;17387;42.690;23.328;2023-04-06T05:58:06;25.70;;;15.60;;
29984;SDS011;17387;42.690;23.328;2023-04-06T06:00:31;26.35;;;15.80;;
29984;SDS011;17387;42.690;23.328;2023-04-06T06:02:56;26.65;;;15.98;;
29984;SDS011;17387;42.690;23.328;2023-04-06T06:05:22;22.02;;;12.95;;
29984;SDS011;17387;42.690;23.328;2023-04-06T06:07:47;28.25;;;15.15;;
29984;SDS011;17387;42.690;23.328;2023-04-06T06:10:12;24.83;;;15.15;;
29984;SDS011;17387;42.690;23.328;2023-04-06T06:12:38;24.05;;;13.43;;
29984;SDS011;17387;42.690;23.328;2023-04-06T06:15:03;23.83;;;13.20;;
29984;SDS011;17387;42.690;23.328;2023-04-06T06:17:28;24.05;;;14.90;;
29984;SDS011;17387;42.690;23.328;2023-04-06T06:19:54;26.17;;;15.30;;
29984;SDS011;17387;42.690;23.328;2023-04-06T06:22:19;24.10;;;14.00;;
29984;SDS011;17387;42.690;23.328;2023-04-06T06:24:44;22.55;;;13.70;;
29984;SDS011;17387;42.690;23.328;2023-04-06T06:27:10;27.42;;;14.00;;
29984;SDS011;17387;42.690;23.328;2023-04-06T06:29:35;24.40;;;14.80;;
29984;SDS011;17387;42.690;23.328;2023-04-06T06:32:00;25.17;;;14.65;;
29984;SDS011;17387;42.690;23.328;2023-04-06T06:34:26;25.42;;;15.35;;
29984;SDS011;17387;42.690;23.328;2023-04-06T06:36:51;26.08;;;13.80;;
29984;SDS011;17387;42.690;23.328;2023-04-06T06:39:16;23.23;;;14.45;;
29984;SDS011;17387;42.690;23.328;2023-04-06T06:41:42;28.48;;;15.88;;
29984;SDS011;17387;42.690;23.328;2023-04-06T06:44:07;26.13;;;15.07;;
29984;SDS011;17387;42.690;23.328;2023-04-06T06:46:32;23.48;;;14.27;;
29984;SDS011;17387;42.690;23.328;2023-04-06T06:48:58;25.83;;;13.75;;
29984;SDS011;17387;42.690;23.328;2023-04-06T06:51:23;26.80;;;15.40;;
29984;SDS011;17387;42.690;23.328;2023-04-06T06:53:49;22.63;;;13.45;;
29984;SDS011;17387;42.690;23.328;2023-04-06T06:56:14;21.10;;;12.90;;
29984;SDS011;17387;42.690;23.328;2023-04-06T06:58:40;22.55;;;12.65;;
29984;SDS011;17387;42.690;23.328;2023-04-06T07:01:05;21.75;;;12.65;;
29984;SDS011;17387;42.690;23.328;2023-04-06T07:03:32;21.05;;;13.43;;
29984;SDS011;17387;42.690;23.328;2023-04-06T07:05:57;20.50;;;11.32;;
29984;SDS011;17387;42.690;23.328;2023-04-06T07:08:23;25.88;;;14.10;;
29984;SDS011;17387;42.690;23.328;2023-04-06T07:10:49;22.52;;;14.32;;
29984;SDS011;17387;42.690;23.328;2023-04-06T07:13:16;26.80;;;14.85;;
29984;SDS011;17387;42.690;23.328;2023-04-06T07:15:46;28.92;;;14.13;;
29984;SDS011;17387;42.690;23.328;2023-04-06T07:18:11;26.00;;;15.05;;
29984;SDS011;17387;42.690;23.328;2023-04-06T07:20:37;25.92;;;14.27;;
29984;SDS011;17387;42.690;23.328;2023-04-06T07:23:02;22.40;;;13.30;;
29984;SDS011;17387;42.690;23.328;2023-04-06T07:25:27;23.40;;;13.80;;
29984;SDS011;17387;42.690;23.328;2023-04-06T07:27:53;24.13;;;11.65;;
29984;SDS011;17387;42.690;23.328;2023-04-06T07:30:18;26.02;;;14.27;;
29984;SDS011;17387;42.690;23.328;2023-04-06T07:32:44;22.30;;;13.20;;
29984;SDS011;17387;42.690;23.328;2023-04-06T07:35:10;21.98;;;13.50;;
29984;SDS011;17387;42.690;23.328;2023-04-06T07:37:35;24.88;;;13.55;;
29984;SDS011;17387;42.690;23.328;2023-04-06T07:40:00;21.15;;;13.48;;
29984;SDS011;17387;42.690;23.328;2023-04-06T07:42:26;26.52;;;15.23;;
29984;SDS011;17387;42.690;23.328;2023-04-06T07:44:51;29.58;;;15.55;;
29984;SDS011;17387;42.690;23.328;2023-04-06T07:47:16;27.33;;;15.73;;
29984;SDS011;17387;42.690;23.328;2023-04-06T07:49:41;24.02;;;15.07;;
29984;SDS011;17387;42.690;23.328;2023-04-06T07:52:07;24.38;;;13.95;;
29984;SDS011;17387;42.690;23.328;2023-04-06T07:54:32;20.73;;;13.43;;
29984;SDS011;17387;42.690;23.328;2023-04-06T07:56:57;22.90;;;13.75;;
29984;SDS011;17387;42.690;23.328;2023-04-06T07:59:22;26.50;;;14.75;;
29984;SDS011;17387;42.690;23.328;2023-04-06T08:01:48;25.60;;;13.15;;
29984;SDS011;17387;42.690;23.328;2023-04-06T08:04:13;22.80;;;14.40;;
29984;SDS011;17387;42.690;23.328;2023-04-06T08:06:39;23.08;;;13.38;;
29984;SDS011;17387;42.690;23.328;2023-04-06T08:09:05;19.58;;;13.13;;
29984;SDS011;17387;42.690;23.328;2023-04-06T08:11:31;22.15;;;12.80;;
29984;SDS011;17387;42.690;23.328;2023-04-06T08:13:56;23.52;;;12.50;;
29984;SDS011;17387;42.690;23.328;2023-04-06T08:16:22;19.42;;;11.90;;
29984;SDS011;17387;42.690;23.328;2023-04-06T08:18:47;20.65;;;11.02;;
29984;SDS011;17387;42.690;23.328;2023-04-06T08:21:12;17.00;;;11.00;;
29984;SDS011;17387;42.690;23.328;2023-04-06T08:23:38;16.73;;;10.95;;
29984;SDS011;17387;42.690;23.328;2023-04-06T08:26:03;26.20;;;12.82;;
29984;SDS011;17387;42.690;23.328;2023-04-06T08:28:28;21.98;;;14.15;;
29984;SDS011;17387;42.690;23.328;2023-04-06T08:30:53;18.55;;;12.10;;
29984;SDS011;17387;42.690;23.328;2023-04-06T08:33:19;17.23;;;11.35;;
29984;SDS011;17387;42.690;23.328;2023-04-06T08:35:44;17.83;;;11.93;;
29984;SDS011;17387;42.690;23.328;2023-04-06T08:38:09;18.10;;;11.27;;
29984;SDS011;17387;42.690;23.328;2023-04-06T08:40:38;20.08;;;11.82;;
29984;SDS011;17387;42.690;23.328;2023-04-06T08:43:05;17.45;;;10.63;;
29984;SDS011;17387;42.690;23.328;2023-04-06T08:45:33;21.73;;;11.05;;
29984;SDS011;17387;42.690;23.328;2023-04-06T08:47:58;17.80;;;11.63;;
29984;SDS011;17387;42.690;23.328;2023-04-06T08:50:26;18.23;;;11.13;;
29984;SDS011;17387;42.690;23.328;2023-04-06T08:52:52;17.50;;;12.23;;
29984;SDS011;17387;42.690;23.328;2023-04-06T08:55:19;19.02;;;12.27;;
29984;SDS011;17387;42.690;23.328;2023-04-06T08:57:44;18.23;;;11.77;;
29984;SDS011;17387;42.690;23.328;2023-04-06T09:00:10;13.88;;;9.60;;
29984;SDS011;17387;42.690;23.328;2023-04-06T09:02:39;19.00;;;11.82;;
29984;SDS011;17387;42.690;23.328;2023-04-06T09:05:07;20.23;;;12.25;;
29984;SDS011;17387;42.690;23.328;2023-04-06T09:07:32;25.23;;;12.80;;
29984;SDS011;17387;42.690;23.328;2023-04-06T09:09:58;19.17;;;11.43;;
29984;SDS011;17387;42.690;23.328;2023-04-06T09:12:26;18.10;;;12.20;;
29984;SDS011;17387;42.690;23.328;2023-04-06T09:14:52;17.75;;;10.23;;
29984;SDS011;17387;42.690;23.328;2023-04-06T09:17:24;20.02;;;11.57;;
29984;SDS011;17387;42.690;23.328;2023-04-06T09:19:50;20.25;;;11.55;;
29984;SDS011;17387;42.690;23.328;2023-04-06T09:22:15;18.65;;;10.52;;
29984;SDS011;17387;42.690;23.328;2023-04-06T09:24:44;18.30;;;11.98;;
29984;SDS011;17387;42.690;23.328;2023-04-06T09:27:10;20.05;;;11.68;;
29984;SDS011;17387;42.690;23.328;2023-04-06T09:29:35;19.10;;;11.35;;
29984;SDS011;17387;42.690;23.328;2023-04-06T09:32:05;21.40;;;12.52;;
29984;SDS011;17387;42.690;23.328;2023-04-06T09:34:30;19.30;;;11.80;;
29984;SDS011;17387;42.690;23.328;2023-04-06T09:36:56;16.92;;;11.43;;
29984;SDS011;17387;42.690;23.328;2023-04-06T09:39:21;19.77;;;11.68;;
29984;SDS011;17387;42.690;23.328;2023-04-06T09:41:49;21.38;;;12.80;;
29984;SDS011;17387;42.690;23.328;2023-04-06T09:44:15;18.13;;;11.52;;
29984;SDS011;17387;42.690;23.328;2023-04-06T09:46:41;20.65;;;11.70;;
29984;SDS011;17387;42.690;23.328;2023-04-06T09:49:07;16.88;;;10.55;;
29984;SDS011;17387;42.690;23.328;2023-04-06T09:51:36;17.95;;;10.57;;
29984;SDS011;17387;42.690;23.328;2023-04-06T09:54:02;19.00;;;12.05;;
29984;SDS011;17387;42.690;23.328;2023-04-06T09:59:26;17.27;;;11.45;;
29984;SDS011;17387;42.690;23.328;2023-04-06T10:01:55;16.25;;;11.45;;
29984;SDS011;17387;42.690;23.328;2023-04-06T10:06:51;15.82;;;10.82;;
29984;SDS011;17387;42.690;23.328;2023-04-06T10:09:18;21.52;;;13.25;;
29984;SDS011;17387;42.690;23.328;2023-04-06T10:11:43;16.65;;;9.70;;
29984;SDS011;17387;42.690;23.328;2023-04-06T10:14:09;13.98;;;9.15;;
29984;SDS011;17387;42.690;23.328;2023-04-06T10:16:36;16.60;;;10.77;;
29984;SDS011;17387;42.690;23.328;2023-04-06T10:19:05;16.85;;;9.50;;
29984;SDS011;17387;42.690;23.328;2023-04-06T10:21:32;15.15;;;9.73;;
29984;SDS011;17387;42.690;23.328;2023-04-06T10:24:01;17.17;;;10.82;;
29984;SDS011;17387;42.690;23.328;2023-04-06T10:26:26;17.15;;;10.38;;
29984;SDS011;17387;42.690;23.328;2023-04-06T10:28:52;16.42;;;10.73;;
29984;SDS011;17387;42.690;23.328;2023-04-06T10:31:24;17.55;;;10.80;;
29984;SDS011;17387;42.690;23.328;2023-04-06T10:33:59;19.13;;;11.77;;
29984;SDS011;17387;42.690;23.328;2023-04-06T10:36:25;17.10;;;10.25;;
29984;SDS011;17387;42.690;23.328;2023-04-06T10:38:55;15.88;;;10.32;;
29984;SDS011;17387;42.690;23.328;2023-04-06T10:41:22;15.60;;;10.38;;
29984;SDS011;17387;42.690;23.328;2023-04-06T10:43:54;17.38;;;10.20;;
29984;SDS011;17387;42.690;23.328;2023-04-06T10:46:24;15.65;;;10.02;;
29984;SDS011;17387;42.690;23.328;2023-04-06T10:48:49;18.02;;;11.32;;
29984;SDS011;17387;42.690;23.328;2023-04-06T10:51:16;18.90;;;11.70;;
29984;SDS011;17387;42.690;23.328;2023-04-06T10:53:42;18.67;;;11.38;;
29984;SDS011;17387;42.690;23.328;2023-04-06T10:56:13;14.73;;;10.23;;
29984;SDS011;17387;42.690;23.328;2023-04-06T10:58:45;17.73;;;12.02;;
29984;SDS011;17387;42.690;23.328;2023-04-06T11:01:18;15.63;;;9.93;;
29984;SDS011;17387;42.690;23.328;2023-04-06T11:03:44;15.80;;;10.55;;
29984;SDS011;17387;42.690;23.328;2023-04-06T11:06:10;16.63;;;10.77;;
29984;SDS011;17387;42.690;23.328;2023-04-06T11:08:35;14.07;;;10.00;;
29984;SDS011;17387;42.690;23.328;2023-04-06T11:13:52;16.15;;;10.18;;
29984;SDS011;17387;42.690;23.328;2023-04-06T11:18:47;14.85;;;9.90;;
29984;SDS011;17387;42.690;23.328;2023-04-06T11:21:12;16.55;;;9.73;;
29984;SDS011;17387;42.690;23.328;2023-04-06T11:23:37;17.65;;;10.32;;
29984;SDS011;17387;42.690;23.328;2023-04-06T11:26:03;13.25;;;8.52;;
29984;SDS011;17387;42.690;23.328;2023-04-06T11:28:28;15.80;;;10.45;;
29984;SDS011;17387;42.690;23.328;2023-04-06T11:30:53;15.23;;;10.10;;
29984;SDS011;17387;42.690;23.328;2023-04-06T11:33:21;15.63;;;9.73;;
29984;SDS011;17387;42.690;23.328;2023-04-06T11:35:50;15.93;;;9.60;;
29984;SDS011;17387;42.690;23.328;2023-04-06T11:38:17;13.75;;;9.50;;
29984;SDS011;17387;42.690;23.328;2023-04-06T11:40:42;14.38;;;9.63;;
29984;SDS011;17387;42.690;23.328;2023-04-06T11:43:10;13.68;;;9.23;;
29984;SDS011;17387;42.690;23.328;2023-04-06T11:45:41;14.35;;;9.43;;
29984;SDS011;17387;42.690;23.328;2023-04-06T11:48:17;17.25;;;11.00;;
29984;SDS011;17387;42.690;23.328;2023-04-06T11:50:43;17.45;;;10.45;;
29984;SDS011;17387;42.690;23.328;2023-04-06T11:53:11;16.83;;;10.50;;
29984;SDS011;17387;42.690;23.328;2023-04-06T11:55:39;16.27;;;10.73;;
29984;SDS011;17387;42.690;23.328;2023-04-06T11:58:05;15.25;;;10.70;;
29984;SDS011;17387;42.690;23.328;2023-04-06T12:00:31;16.83;;;10.93;;
29984;SDS011;17387;42.690;23.328;2023-04-06T12:02:59;18.75;;;12.13;;
29984;SDS011;17387;42.690;23.328;2023-04-06T12:05:25;15.70;;;9.60;;
29984;SDS011;17387;42.690;23.328;2023-04-06T12:07:50;17.38;;;10.90;;
29984;SDS011;17387;42.690;23.328;2023-04-06T12:10:16;15.15;;;9.95;;
29984;SDS011;17387;42.690;23.328;2023-04-06T12:12:41;15.50;;;10.45;;
29984;SDS011;17387;42.690;23.328;2023-04-06T12:15:06;13.85;;;9.55;;
29984;SDS011;17387;42.690;23.328;2023-04-06T12:17:32;15.32;;;10.23;;
29984;SDS011;17387;42.690;23.328;2023-04-06T12:19:57;16.20;;;10.10;;
29984;SDS011;17387;42.690;23.328;2023-04-06T12:22:22;15.75;;;10.57;;
29984;SDS011;17387;42.690;23.328;2023-04-06T12:24:47;14.48;;;9.55;;
29984;SDS011;17387;42.690;23.328;2023-04-06T12:27:13;16.92;;;10.15;;
29984;SDS011;17387;42.690;23.328;2023-04-06T12:29:38;14.73;;;9.75;;
29984;SDS011;17387;42.690;23.328;2023-04-06T12:32:04;11.80;;;8.75;;
29984;SDS011;17387;42.690;23.328;2023-04-06T12:34:30;12.23;;;8.40;;
29984;SDS011;17387;42.690;23.328;2023-04-06T12:36:55;12.93;;;8.65;;
29984;SDS011;17387;42.690;23.328;2023-04-06T12:39:21;13.20;;;8.98;;
29984;SDS011;17387;42.690;23.328;2023-04-06T12:41:46;12.85;;;8.70;;
29984;SDS011;17387;42.690;23.328;2023-04-06T12:44:12;11.52;;;8.98;;
29984;SDS011;17387;42.690;23.328;2023-04-06T12:46:37;14.25;;;9.48;;
29984;SDS011;17387;42.690;23.328;2023-04-06T12:49:02;13.63;;;9.18;;
29984;SDS011;17387;42.690;23.328;2023-04-06T12:51:28;14.35;;;9.02;;
29984;SDS011;17387;42.690;23.328;2023-04-06T12:53:53;20.85;;;10.10;;
29984;SDS011;17387;42.690;23.328;2023-04-06T12:56:19;18.50;;;10.27;;
29984;SDS011;17387;42.690;23.328;2023-04-06T12:58:45;15.25;;;10.43;;
29984;SDS011;17387;42.690;23.328;2023-04-06T13:01:11;22.15;;;11.98;;
29984;SDS011;17387;42.690;23.328;2023-04-06T13:03:39;17.98;;;10.68;;
29984;SDS011;17387;42.690;23.328;2023-04-06T13:06:05;16.33;;;10.30;;
29984;SDS011;17387;42.690;23.328;2023-04-06T13:08:30;16.25;;;10.23;;
29984;SDS011;17387;42.690;23.328;2023-04-06T13:10:55;16.00;;;10.40;;
29984;SDS011;17387;42.690;23.328;2023-04-06T13:13:24;12.63;;;9.07;;
29984;SDS011;17387;42.690;23.328;2023-04-06T13:15:50;16.40;;;10.25;;
29984;SDS011;17387;42.690;23.328;2023-04-06T13:18:16;17.25;;;10.55;;
29984;SDS011;17387;42.690;23.328;2023-04-06T13:20:41;17.02;;;10.43;;
29984;SDS011;17387;42.690;23.328;2023-04-06T13:23:10;19.45;;;11.05;;
29984;SDS011;17387;42.690;23.328;2023-04-06T13:25:36;17.02;;;11.50;;
29984;SDS011;17387;42.690;23.328;2023-04-06T13:28:01;18.88;;;11.90;;
29984;SDS011;17387;42.690;23.328;2023-04-06T13:30:27;16.77;;;9.80;;
29984;SDS011;17387;42.690;23.328;2023-04-06T13:32:52;17.58;;;10.85;;
29984;SDS011;17387;42.690;23.328;2023-04-06T13:35:19;19.60;;;10.10;;
29984;SDS011;17387;42.690;23.328;2023-04-06T13:37:44;13.52;;;8.88;;
29984;SDS011;17387;42.690;23.328;2023-04-06T13:40:11;15.63;;;9.55;;
29984;SDS011;17387;42.690;23.328;2023-04-06T13:42:36;13.05;;;8.98;;
29984;SDS011;17387;42.690;23.328;2023-04-06T13:45:05;12.52;;;8.80;;
29984;SDS011;17387;42.690;23.328;2023-04-06T13:47:30;13.27;;;9.30;;
29984;SDS011;17387;42.690;23.328;2023-04-06T13:49:56;10.73;;;7.22;;
29984;SDS011;17387;42.690;23.328;2023-04-06T13:52:21;14.10;;;8.57;;
29984;SDS011;17387;42.690;23.328;2023-04-06T13:54:48;13.27;;;8.50;;
29984;SDS011;17387;42.690;23.328;2023-04-06T13:57:13;14.10;;;9.10;;
29984;SDS011;17387;42.690;23.328;2023-04-06T13:59:38;14.93;;;9.45;;
29984;SDS011;17387;42.690;23.328;2023-04-06T14:02:05;15.55;;;9.02;;
29984;SDS011;17387;42.690;23.328;2023-04-06T14:04:30;12.43;;;7.95;;
29984;SDS011;17387;42.690;23.328;2023-04-06T14:06:56;15.38;;;8.80;;
29984;SDS011;17387;42.690;23.328;2023-04-06T14:09:22;12.32;;;8.52;;
29984;SDS011;17387;42.690;23.328;2023-04-06T14:11:47;13.30;;;8.07;;
29984;SDS011;17387;42.690;23.328;2023-04-06T14:14:12;18.05;;;9.77;;